Time;durP1;ratioP1;P1;durP2;ratioP2;P2;SDS_P1;SDS_P2;PMS_P1;PMS_P2;Temp;Humidity;BMP_temperature;BMP_pressure;BME280_temperature;BME280_humidity;BME280_pressure;Samples;Min_cycle;Max_cycle;Signal;HPM_P1;HPM_P2
2024/01/20 00:00:29;;;;;;;;;;;0.10;99.90;;;;;;5053372;28;20057;-61
2024/01/20 00:02:55;;;;;;;15.88;13.07;;;0.10;99.90;;;;;;5052596;28;19928;-61
2024/01/20 00:05:22;;;;;;;15.98;13.45;;;0.00;99.90;;;;;;5052786;28;20060;-61
2024/01/20 00:07:48;;;;;;;;;;;0.20;99.90;;;;;;5052758;28;20120;-61
2024/01/20 00:10:14;;;;;;;18.77;13.88;;;0.10;99.90;;;;;;5052561;28;19970;-62
2024/01/20 00:12:42;;;;;;;;;;;0.10;99.90;;;;;;5052237;28;20454;-61
2024/01/20 00:15:09;;;;;;;16.73;13.45;;;0.10;99.90;;;;;;5052948;28;19921;-61
2024/01/20 00:17:38;;;;;;;24.17;13.88;;;0.00;99.90;;;;;;5052628;28;20052;-59
2024/01/20 00:20:06;;;;;;;17.95;14.45;;;0.10;99.90;;;;;;5051483;28;20061;-61
2024/01/20 00:22:32;;;;;;;17.83;13.65;;;0.10;99.90;;;;;;5052300;28;20053;-62
2024/01/20 00:25:00;;;;;;;;;;;0.00;99.90;;;;;;5052956;28;20118;-60
2024/01/20 00:27:28;;;;;;;17.05;13.40;;;-0.10;99.90;;;;;;5052328;28;19932;-61
2024/01/20 00:29:54;;;;;;;18.67;14.18;;;0.10;99.90;;;;;;5052623;28;20056;-62
2024/01/20 00:32:20;;;;;;;19.33;14.00;;;-0.10;99.90;;;;;;5052860;28;20045;-62
2024/01/20 00:34:46;;;;;;;20.15;13.57;;;0.10;99.90;;;;;;5051172;28;20064;-62
2024/01/20 00:37:13;;;;;;;16.48;13.90;;;0.00;99.90;;;;;;5051576;28;20140;-62
2024/01/20 00:39:39;;;;;;;20.08;14.48;;;0.10;99.90;;;;;;5052433;28;20052;-60
2024/01/20 00:42:05;;;;;;;19.05;14.65;;;-0.10;99.90;;;;;;5051754;28;20060;-60
2024/01/20 00:44:31;;;;;;;;;;;0.00;99.90;;;;;;5053036;28;20257;-60
2024/01/20 00:46:58;;;;;;;19.58;14.38;;;0.00;99.90;;;;;;5050605;28;19933;-62
2024/01/20 00:49:24;;;;;;;20.55;14.88;;;0.00;99.90;;;;;;5052039;28;20044;-61
2024/01/20 00:51:50;;;;;;;19.20;14.70;;;0.00;99.90;;;;;;5051212;28;20499;-62
2024/01/20 00:54:16;;;;;;;;;;;-0.20;99.90;;;;;;5050865;28;20537;-60
2024/01/20 00:56:42;;;;;;;22.50;14.85;;;-0.10;99.90;;;;;;5051440;28;20238;-61
2024/01/20 00:59:09;;;;;;;18.70;14.32;;;-0.20;99.90;;;;;;5051746;28;20053;-60
2024/01/20 01:01:35;;;;;;;;;;;-0.20;99.90;;;;;;5051950;28;20044;-60
2024/01/20 01:04:01;;;;;;;19.00;13.82;;;-0.20;99.90;;;;;;5051726;28;19974;-61
2024/01/20 01:06:27;;;;;;;;;;;-0.10;99.90;;;;;;5051717;28;20102;-60
2024/01/20 01:08:54;;;;;;;19.73;15.68;;;-0.10;99.90;;;;;;5051907;28;19947;-60
2024/01/20 01:11:20;;;;;;;21.20;15.52;;;-0.20;99.90;;;;;;5051084;28;20358;-61
2024/01/20 01:13:46;;;;;;;;;;;-0.10;99.90;;;;;;5050584;28;20049;-60
2024/01/20 01:16:13;;;;;;;19.58;15.30;;;-0.10;99.90;;;;;;5051625;28;19931;-61
2024/01/20 01:18:40;;;;;;;19.52;15.80;;;-0.10;99.90;;;;;;5050987;28;20048;-62
2024/01/20 01:21:07;;;;;;;26.83;17.38;;;-0.10;99.90;;;;;;5050755;28;20052;-60
2024/01/20 01:23:33;;;;;;;22.30;15.73;;;-0.20;99.90;;;;;;5051177;28;20381;-60
2024/01/20 01:26:00;;;;;;;;;;;-0.20;99.90;;;;;;5051887;28;20053;-58
2024/01/20 01:28:26;;;;;;;20.60;16.92;;;-0.10;99.90;;;;;;5050644;28;20379;-61
2024/01/20 01:30:52;;;;;;;26.50;16.42;;;-0.20;99.90;;;;;;5050945;28;20064;-61
2024/01/20 01:33:19;;;;;;;;;;;-0.20;99.90;;;;;;5050135;28;20049;-61
2024/01/20 01:35:45;;;;;;;23.52;17.48;;;-0.10;99.90;;;;;;5050636;28;20338;-61
2024/01/20 01:38:11;;;;;;;25.48;17.05;;;-0.30;99.90;;;;;;5049428;28;20381;-60
2024/01/20 01:40:37;;;;;;;;;;;-0.30;99.90;;;;;;5051802;28;20056;-61
2024/01/20 01:43:03;;;;;;;22.83;16.98;;;-0.20;99.90;;;;;;5050473;28;20343;-62
2024/01/20 01:45:30;;;;;;;24.48;18.10;;;-0.30;99.90;;;;;;5050685;28;20443;-61
2024/01/20 01:47:56;;;;;;;22.60;17.55;;;-0.10;99.90;;;;;;5049592;28;20368;-61
2024/01/20 01:50:22;;;;;;;;;;;-0.30;99.90;;;;;;5051801;28;20048;-61
2024/01/20 01:52:52;;;;;;;20.45;17.35;;;-0.30;99.90;;;;;;5049384;28;19940;-61
2024/01/20 01:55:18;;;;;;;25.73;18.52;;;-0.10;99.90;;;;;;5049477;28;20056;-61
2024/01/20 01:57:46;;;;;;;22.88;17.42;;;-0.20;99.90;;;;;;5050326;28;20053;-61
2024/01/20 02:00:12;;;;;;;24.85;18.92;;;-0.20;99.90;;;;;;5050813;28;20063;-61
2024/01/20 02:02:39;;;;;;;;;;;-0.10;99.90;;;;;;5049944;28;20048;-61
2024/01/20 02:05:05;;;;;;;25.55;18.20;;;-0.20;99.90;;;;;;5050559;28;20054;-60
2024/01/20 02:07:32;;;;;;;25.48;19.25;;;-0.20;99.90;;;;;;5049948;28;20056;-60
2024/01/20 02:09:59;;;;;;;32.72;18.85;;;-0.30;99.90;;;;;;5050737;28;20044;-61
2024/01/20 02:12:25;;;;;;;;;;;-0.40;99.90;;;;;;5049678;28;20053;-60
2024/01/20 02:14:51;;;;;;;25.40;18.77;;;-0.20;99.90;;;;;;5050393;28;19978;-62
2024/01/20 02:17:18;;;;;;;23.02;18.05;;;-0.30;99.90;;;;;;5049916;28;20045;-62
2024/01/20 02:19:45;;;;;;;;;;;-0.50;99.90;;;;;;5050909;28;20061;-61
2024/01/20 02:22:12;;;;;;;25.58;17.88;;;-0.50;99.90;;;;;;5050400;28;19921;-60
2024/01/20 02:24:40;;;;;;;25.10;18.98;;;-0.40;99.90;;;;;;5050520;28;20056;-62
2024/01/20 02:27:06;;;;;;;26.38;19.25;;;-0.60;99.90;;;;;;5049750;28;20053;-61
2024/01/20 02:29:33;;;;;;;26.52;19.48;;;-0.40;99.90;;;;;;5050340;28;20075;-62
2024/01/20 02:31:59;;;;;;;;;;;-0.40;99.90;;;;;;5049699;28;20075;-61
2024/01/20 02:34:27;;;;;;;27.77;18.77;;;-0.60;99.90;;;;;;5053595;28;19921;-62
2024/01/20 02:36:53;;;;;;;26.13;18.27;;;-0.50;99.90;;;;;;5053892;28;20049;-60
2024/01/20 02:39:19;;;;;;;;;;;-0.60;99.90;;;;;;5054800;28;20072;-60
2024/01/20 02:41:47;;;;;;;24.42;19.77;;;-0.50;99.90;;;;;;5054508;28;20164;-62
2024/01/20 02:44:13;;;;;;;26.52;18.30;;;-0.60;99.90;;;;;;5053070;28;20060;-61
2024/01/20 02:46:39;;;;;;;30.17;19.25;;;-0.60;99.90;;;;;;5054132;28;20462;-61
2024/01/20 02:49:06;;;;;;;27.02;18.98;;;-0.70;99.90;;;;;;5054241;28;20040;-61
2024/01/20 02:51:32;;;;;;;;;;;-0.70;99.90;;;;;;5054521;28;20063;-61
2024/01/20 02:53:59;;;;;;;22.30;17.73;;;-0.70;99.90;;;;;;5053956;28;19921;-61
2024/01/20 02:56:25;;;;;;;23.80;17.45;;;-0.60;99.90;;;;;;5053945;28;20118;-61
2024/01/20 02:58:51;;;;;;;23.95;17.83;;;-0.60;99.90;;;;;;5052732;28;20045;-61
2024/01/20 03:01:18;;;;;;;30.05;18.80;;;-0.70;99.90;;;;;;5053603;28;20412;-62
2024/01/20 03:03:45;;;;;;;26.35;19.40;;;-0.60;99.90;;;;;;5054269;28;20474;-61
2024/01/20 03:06:11;;;;;;;25.13;19.33;;;-0.80;99.90;;;;;;5053548;28;20362;-62
2024/01/20 03:08:38;;;;;;;26.17;18.73;;;-0.80;99.90;;;;;;5053999;28;20044;-60
2024/01/20 03:11:04;;;;;;;25.83;16.88;;;-0.80;99.90;;;;;;5053348;28;20052;-61
2024/01/20 03:13:30;;;;;;;26.30;18.30;;;-0.80;99.90;;;;;;5053713;28;20052;-61
2024/01/20 03:15:56;;;;;;;23.80;16.65;;;-0.70;99.90;;;;;;5053679;28;20049;-60
2024/01/20 03:18:23;;;;;;;30.23;18.02;;;-0.80;99.90;;;;;;5053348;28;20049;-61
2024/01/20 03:20:49;;;;;;;26.80;17.92;;;-0.70;99.90;;;;;;5053452;28;20396;-61
2024/01/20 03:23:15;;;;;;;;;;;-0.90;99.90;;;;;;5053199;28;20075;-61
2024/01/20 03:25:41;;;;;;;27.17;18.73;;;-0.80;99.90;;;;;;5052356;28;19931;-62
2024/01/20 03:28:08;;;;;;;25.98;19.50;;;-0.90;99.90;;;;;;5052274;28;20068;-61
2024/01/20 03:30:34;;;;;;;27.67;16.80;;;-0.90;99.90;;;;;;5053903;28;20053;-60
2024/01/20 03:33:00;;;;;;;;;;;-0.80;99.90;;;;;;5053918;28;20140;-62
2024/01/20 03:35:26;;;;;;;25.00;16.33;;;-0.90;99.90;;;;;;5053447;28;19920;-59
2024/01/20 03:37:53;;;;;;;30.88;18.90;;;-0.80;99.90;;;;;;5052744;28;20060;-61
2024/01/20 03:40:19;;;;;;;29.60;19.73;;;-0.80;99.90;;;;;;5053206;28;20080;-61
2024/01/20 03:42:45;;;;;;;;;;;-0.90;99.90;;;;;;5053327;28;20052;-61
2024/01/20 03:45:11;;;;;;;28.73;18.38;;;-0.80;99.90;;;;;;5051412;28;19990;-61
2024/01/20 03:47:38;;;;;;;31.40;17.45;;;-0.90;99.90;;;;;;5051315;28;20057;-60
2024/01/20 03:50:06;;;;;;;32.30;20.88;;;-0.70;99.90;;;;;;5052780;28;20170;-59
2024/01/20 03:52:32;;;;;;;30.90;18.55;;;-0.90;99.90;;;;;;5051470;28;20048;-60
2024/01/20 03:54:59;;;;;;;33.03;20.50;;;-0.80;99.90;;;;;;5052670;28;20057;-61
2024/01/20 03:57:25;;;;;;;31.02;19.45;;;-0.80;99.90;;;;;;5052011;28;20044;-62
2024/01/20 03:59:51;;;;;;;35.60;21.55;;;-0.90;99.90;;;;;;5052885;28;20045;-61
2024/01/20 04:02:17;;;;;;;34.95;20.80;;;-0.70;99.90;;;;;;5051232;28;20053;-61
2024/01/20 04:04:44;;;;;;;26.65;17.63;;;-0.80;99.90;;;;;;5052454;28;20091;-61
2024/01/20 04:07:10;;;;;;;31.52;19.38;;;-0.90;99.90;;;;;;5050758;28;20068;-60
2024/01/20 04:09:36;;;;;;;;;;;-0.80;99.90;;;;;;5052099;28;20049;-61
2024/01/20 04:12:03;;;;;;;34.83;19.67;;;-1.00;99.90;;;;;;5050825;28;19936;-61
2024/01/20 04:14:30;;;;;;;34.33;18.15;;;-0.90;99.90;;;;;;5051048;28;20056;-61
2024/01/20 04:16:56;;;;;;;34.83;19.67;;;-1.00;99.90;;;;;;5050420;28;20059;-61
2024/01/20 04:19:22;;;;;;;31.25;17.73;;;-1.00;99.90;;;;;;5052496;28;20044;-61
2024/01/20 04:21:48;;;;;;;37.60;19.52;;;-1.00;99.90;;;;;;5052288;28;20245;-61
2024/01/20 04:24:15;;;;;;;;;;;-1.10;99.90;;;;;;5052978;28;20049;-60
2024/01/20 04:26:41;;;;;;;36.38;19.13;;;-1.00;99.90;;;;;;5051692;28;19935;-60
2024/01/20 04:29:07;;;;;;;;;;;-1.20;99.90;;;;;;5052609;28;20045;-62
2024/01/20 04:31:34;;;;;;;30.55;19.13;;;-1.00;99.90;;;;;;5050835;28;19924;-60
2024/01/20 04:34:00;;;;;;;33.58;20.23;;;-1.00;99.90;;;;;;5050664;28;20081;-62
2024/01/20 04:36:26;;;;;;;33.80;19.55;;;-1.10;99.90;;;;;;5051110;28;20389;-60
2024/01/20 04:38:52;;;;;;;35.22;18.77;;;-1.00;99.90;;;;;;5051864;28;20461;-61
2024/01/20 04:41:19;;;;;;;33.90;20.88;;;-1.00;99.90;;;;;;5051672;28;20465;-60
2024/01/20 04:43:45;;;;;;;35.70;20.48;;;-1.10;99.90;;;;;;5051833;28;20057;-62
2024/01/20 04:46:11;;;;;;;;;;;-1.00;99.90;;;;;;5052222;28;20057;-61
2024/01/20 04:48:37;;;;;;;36.92;20.83;;;-1.10;99.90;;;;;;5050734;28;20184;-61
2024/01/20 04:51:04;;;;;;;32.15;18.33;;;-1.20;99.90;;;;;;5051695;28;20045;-61
2024/01/20 04:53:30;;;;;;;32.42;19.10;;;-1.00;99.90;;;;;;5033905;28;20063;-60
2024/01/20 04:55:56;;;;;;;37.78;20.30;;;-1.10;99.90;;;;;;5049925;28;20057;-62
2024/01/20 04:58:23;;;;;;;35.10;21.10;;;-1.20;99.90;;;;;;5051551;28;20048;-62
2024/01/20 05:00:49;;;;;;;38.45;20.63;;;-1.00;99.90;;;;;;5051555;28;20052;-61
2024/01/20 05:03:15;;;;;;;;;;;-0.90;99.90;;;;;;5051752;28;20059;-62
2024/01/20 05:05:41;;;;;;;36.35;19.40;;;-1.10;99.90;;;;;;5050655;28;19932;-61
2024/01/20 05:08:08;;;;;;;33.80;19.25;;;-1.00;99.90;;;;;;5050475;28;20090;-62
2024/01/20 05:10:34;;;;;;;39.63;19.90;;;-1.10;99.90;;;;;;5051125;28;20049;-62
2024/01/20 05:13:00;;;;;;;;;;;-1.10;99.90;;;;;;5050472;28;20389;-61
2024/01/20 05:15:26;;;;;;;33.85;19.33;;;-1.20;99.90;;;;;;5051196;28;19924;-62
2024/01/20 05:17:53;;;;;;;38.83;19.65;;;-1.20;99.90;;;;;;5049673;28;20049;-62
2024/01/20 05:20:19;;;;;;;;;;;-1.10;99.90;;;;;;5051700;28;20053;-61
2024/01/20 05:22:45;;;;;;;32.75;17.10;;;-1.00;99.90;;;;;;5049706;28;19935;-60
2024/01/20 05:25:11;;;;;;;37.00;19.23;;;-1.10;99.90;;;;;;5050009;28;20061;-61
2024/01/20 05:27:37;;;;;;;;;;;-1.20;99.90;;;;;;5051306;28;20049;-61
2024/01/20 05:30:05;;;;;;;37.63;20.02;;;-1.10;99.90;;;;;;5050909;28;19994;-60
2024/01/20 05:32:31;;;;;;;33.28;18.80;;;-1.20;99.90;;;;;;5050963;28;20052;-60
2024/01/20 05:34:57;;;;;;;35.78;18.20;;;-1.10;99.90;;;;;;5050932;28;20060;-60
2024/01/20 05:37:24;;;;;;;;;;;-1.10;99.90;;;;;;5050835;28;20060;-61
2024/01/20 05:39:51;;;;;;;36.67;20.17;;;-1.20;99.90;;;;;;5050378;28;20329;-62
2024/01/20 05:42:18;;;;;;;35.90;18.95;;;-1.20;99.90;;;;;;5050502;28;20048;-61
2024/01/20 05:44:44;;;;;;;38.22;19.45;;;-1.10;99.90;;;;;;5050519;28;20063;-60
2024/01/20 05:47:10;;;;;;;;;;;-1.30;99.90;;;;;;5050874;28;20061;-61
2024/01/20 05:49:37;;;;;;;34.35;18.13;;;-1.30;99.90;;;;;;5050684;28;19928;-61
2024/01/20 05:52:03;;;;;;;;;;;-1.20;99.90;;;;;;5050802;28;20078;-62
2024/01/20 05:54:29;;;;;;;35.38;17.15;;;-1.10;99.90;;;;;;5049786;28;20316;-62
2024/01/20 05:56:55;;;;;;;35.65;20.40;;;-1.10;99.90;;;;;;5049097;28;20045;-62
2024/01/20 05:59:22;;;;;;;33.00;17.38;;;-1.10;99.90;;;;;;5049456;28;20045;-60
2024/01/20 06:01:50;;;;;;;34.50;17.40;;;-1.10;99.90;;;;;;5050044;28;20378;-62
2024/01/20 06:04:17;;;;;;;33.35;17.23;;;-1.10;99.90;;;;;;5049432;28;20134;-60
2024/01/20 06:06:47;;;;;;;36.80;18.40;;;-1.00;99.90;;;;;;5048374;28;20068;-61
2024/01/20 06:09:14;;;;;;;31.83;18.92;;;-1.20;99.90;;;;;;5050436;28;20137;-61
2024/01/20 06:11:40;;;;;;;;;;;-1.10;99.90;;;;;;5050648;28;20484;-60
2024/01/20 06:14:07;;;;;;;30.95;16.27;;;-1.00;99.90;;;;;;5045816;28;20329;-61
2024/01/20 06:16:36;;;;;;;35.13;17.77;;;-1.10;99.90;;;;;;5049689;28;20103;-60
2024/01/20 06:19:02;;;;;;;36.55;17.52;;;-1.20;99.90;;;;;;5048048;28;20057;-61
2024/01/20 06:21:28;;;;;;;31.27;17.67;;;-1.10;99.90;;;;;;5048805;28;20052;-61
2024/01/20 06:23:55;;;;;;;35.47;18.38;;;-1.20;99.90;;;;;;5048197;28;20057;-61
2024/01/20 06:26:21;;;;;;;34.50;17.80;;;-1.20;99.90;;;;;;5049247;28;20056;-62
2024/01/20 06:28:47;;;;;;;30.40;17.77;;;-1.10;99.90;;;;;;5050184;28;20052;-62
2024/01/20 06:31:27;;;;;;;30.63;17.73;;;-1.30;99.90;;;;;;5049317;28;20110;-61
2024/01/20 06:33:54;;;;;;;34.10;17.08;;;-1.20;99.90;;;;;;5048724;28;20045;-62
2024/01/20 06:36:21;;;;;;;30.58;17.05;;;-1.20;99.90;;;;;;5049393;28;20106;-60
2024/01/20 06:38:48;;;;;;;33.03;18.65;;;-1.10;99.90;;;;;;5049395;28;20132;-61
2024/01/20 06:41:15;;;;;;;31.70;16.77;;;-1.30;99.90;;;;;;5049829;28;20717;-62
2024/01/20 06:43:41;;;;;;;26.15;15.10;;;-1.20;99.90;;;;;;5049957;28;20056;-61
2024/01/20 06:46:08;;;;;;;31.88;17.60;;;-1.10;99.90;;;;;;5048542;28;20137;-61
2024/01/20 06:48:34;;;;;;;26.83;14.80;;;-1.20;99.90;;;;;;5050036;28;20110;-61
2024/01/20 06:51:03;;;;;;;24.65;14.50;;;-1.10;99.90;;;;;;5050258;28;20358;-61
2024/01/20 06:53:30;;;;;;;30.13;15.85;;;-1.00;99.90;;;;;;5048586;28;20049;-61
2024/01/20 06:55:56;;;;;;;33.35;17.33;;;-1.20;99.90;;;;;;5049072;28;20779;-61
2024/01/20 06:58:23;;;;;;;34.42;18.00;;;-1.10;99.90;;;;;;5049773;28;20091;-60
2024/01/20 07:00:50;;;;;;;33.67;16.88;;;-1.20;99.90;;;;;;5050359;28;20040;-61
2024/01/20 07:03:17;;;;;;;29.20;16.02;;;-1.10;99.90;;;;;;5053153;28;20041;-61
2024/01/20 07:05:43;;;;;;;33.50;16.55;;;-1.10;99.90;;;;;;5048157;28;20064;-60
2024/01/20 07:08:10;;;;;;;;;;;-1.10;99.90;;;;;;5048107;28;20075;-62
2024/01/20 07:10:36;;;;;;;36.10;19.38;;;-1.20;99.90;;;;;;5048922;28;19920;-61
2024/01/20 07:13:02;;;;;;;36.00;17.92;;;-1.20;99.90;;;;;;5049373;28;20052;-61
2024/01/20 07:15:29;;;;;;;33.83;16.88;;;-1.00;99.90;;;;;;5050258;28;20041;-61
2024/01/20 07:17:58;;;;;;;31.77;16.23;;;-1.00;99.90;;;;;;5050424;28;20053;-61
2024/01/20 07:20:25;;;;;;;31.40;16.38;;;-1.00;99.90;;;;;;5051580;28;20226;-60
2024/01/20 07:22:51;;;;;;;31.33;17.48;;;-1.00;99.90;;;;;;5053795;28;20056;-62
2024/01/20 07:25:18;;;;;;;34.25;18.77;;;-1.10;99.90;;;;;;5052439;28;20060;-61
2024/01/20 07:27:45;;;;;;;30.35;15.70;;;-1.10;99.90;;;;;;5061239;28;20063;-60
2024/01/20 07:30:12;;;;;;;31.25;18.10;;;-1.10;99.90;;;;;;5053577;28;20483;-61
2024/01/20 07:32:39;;;;;;;32.00;16.42;;;-1.20;99.90;;;;;;5053540;28;20056;-61
2024/01/20 07:35:07;;;;;;;32.63;17.25;;;-1.10;99.90;;;;;;5051903;28;20057;-63
2024/01/20 07:37:37;;;;;;;31.67;18.13;;;-1.10;99.90;;;;;;5048840;28;20452;-61
2024/01/20 07:40:04;;;;;;;34.38;18.23;;;-1.00;99.90;;;;;;5052096;28;20473;-62
2024/01/20 07:42:35;;;;;;;34.60;17.80;;;-1.00;99.90;;;;;;5051484;28;20048;-61
2024/01/20 07:45:02;;;;;;;30.15;16.98;;;-1.00;99.90;;;;;;5060602;28;20049;-62
2024/01/20 07:47:28;;;;;;;35.28;18.00;;;-1.10;99.90;;;;;;5058816;28;20261;-60
2024/01/20 07:49:54;;;;;;;;;;;-0.90;99.90;;;;;;5052469;28;20060;-61
2024/01/20 07:52:21;;;;;;;31.77;16.67;;;-1.10;99.90;;;;;;5051700;28;19925;-61
2024/01/20 07:54:47;;;;;;;33.85;16.38;;;-1.00;99.90;;;;;;5052533;28;20352;-62
2024/01/20 07:57:13;;;;;;;;;;;-0.80;99.90;;;;;;5052912;28;20089;-62
2024/01/20 07:59:40;;;;;;;33.65;17.67;;;-0.80;99.90;;;;;;5053441;28;19921;-62
2024/01/20 08:02:06;;;;;;;33.95;17.08;;;-0.90;99.90;;;;;;5052954;28;20037;-62
2024/01/20 08:04:32;;;;;;;33.25;16.15;;;-0.70;99.90;;;;;;5052079;28;20059;-62
2024/01/20 08:06:58;;;;;;;;;;;-0.80;99.90;;;;;;5050794;28;20358;-62
2024/01/20 08:09:25;;;;;;;29.85;15.50;;;-0.60;99.90;;;;;;5051093;28;19921;-62
2024/01/20 08:11:51;;;;;;;35.45;18.27;;;-0.60;99.90;;;;;;5049806;28;20056;-61
2024/01/20 08:14:17;;;;;;;;;;;-0.40;99.90;;;;;;5083430;28;20048;-63
2024/01/20 08:16:43;;;;;;;29.58;16.60;;;-0.40;99.90;;;;;;5049734;28;20351;-62
2024/01/20 08:19:10;;;;;;;31.52;17.08;;;-0.30;99.90;;;;;;5049989;28;20055;-62
2024/01/20 08:21:36;;;;;;;30.02;16.05;;;-0.20;99.90;;;;;;5051155;28;20045;-62
2024/01/20 08:24:02;;;;;;;27.77;15.60;;;-0.30;99.90;;;;;;5051671;28;20045;-61
2024/01/20 08:26:32;;;;;;;27.25;14.98;;;-0.40;99.90;;;;;;5050598;28;20049;-62
2024/01/20 08:29:01;;;;;;;29.42;16.15;;;-0.30;99.90;;;;;;5050839;28;20152;-62
2024/01/20 08:31:28;;;;;;;28.58;15.15;;;-0.10;99.90;;;;;;5052016;28;20389;-62
2024/01/20 08:33:54;;;;;;;29.70;15.70;;;0.00;99.90;;;;;;5049935;28;20568;-61
2024/01/20 08:36:21;;;;;;;;;;;0.00;99.90;;;;;;5050468;28;20056;-62
2024/01/20 08:38:47;;;;;;;31.95;16.13;;;0.00;99.90;;;;;;5050555;28;19920;-61
2024/01/20 08:41:13;;;;;;;29.42;15.30;;;0.00;99.90;;;;;;5050297;28;20041;-62
2024/01/20 08:43:43;;;;;;;;;;;-0.10;99.90;;;;;;5049319;28;20063;-62
2024/01/20 08:46:10;;;;;;;27.27;14.70;;;0.10;99.90;;;;;;5049988;28;19921;-62
2024/01/20 08:48:36;;;;;;;30.83;15.20;;;0.10;99.90;;;;;;5050884;28;20049;-62
2024/01/20 08:51:03;;;;;;;28.63;14.57;;;0.00;99.90;;;;;;5051431;28;20462;-61
2024/01/20 08:53:30;;;;;;;26.83;15.45;;;0.10;99.90;;;;;;5051381;28;20392;-62
2024/01/20 08:55:56;;;;;;;26.38;14.80;;;0.20;99.90;;;;;;5050625;28;20139;-63
2024/01/20 08:58:22;;;;;;;27.73;13.85;;;0.10;99.90;;;;;;5049777;28;20087;-61
2024/01/20 09:00:49;;;;;;;;;;;0.20;99.90;;;;;;5050281;28;20053;-61
2024/01/20 09:03:16;;;;;;;24.20;13.13;;;0.10;99.90;;;;;;5049621;28;19924;-62
2024/01/20 09:05:42;;;;;;;28.67;14.82;;;0.20;99.90;;;;;;5051436;28;20064;-60
2024/01/20 09:08:10;;;;;;;28.77;15.13;;;0.20;99.90;;;;;;5051743;28;20375;-61
2024/01/20 09:10:37;;;;;;;29.75;13.63;;;0.30;99.90;;;;;;5051976;28;20126;-62
2024/01/20 09:13:04;;;;;;;32.53;15.10;;;0.30;99.90;;;;;;5051451;28;20071;-61
2024/01/20 09:15:31;;;;;;;29.52;14.75;;;0.20;99.90;;;;;;5052543;28;20053;-60
2024/01/20 09:17:57;;;;;;;25.35;14.27;;;0.10;99.90;;;;;;5051394;28;20045;-62
2024/01/20 09:20:23;;;;;;;30.42;15.60;;;0.40;99.90;;;;;;5052102;28;20056;-61
2024/01/20 09:22:50;;;;;;;;;;;0.20;99.90;;;;;;5052798;28;20055;-62
2024/01/20 09:25:16;;;;;;;24.15;14.20;;;0.30;99.90;;;;;;5050655;28;19986;-61
2024/01/20 09:27:43;;;;;;;27.38;14.20;;;0.40;99.90;;;;;;5052466;28;20049;-62
2024/01/20 09:30:10;;;;;;;30.67;14.43;;;0.40;99.90;;;;;;5053672;28;20053;-62
2024/01/20 09:32:36;;;;;;;27.27;14.68;;;0.40;99.90;;;;;;5051570;28;20045;-61
2024/01/20 09:35:03;;;;;;;26.48;15.02;;;0.40;99.90;;;;;;5051862;28;20044;-62
2024/01/20 09:37:29;;;;;;;20.30;11.60;;;0.50;99.90;;;;;;5051945;28;20041;-63
2024/01/20 09:39:57;;;;;;;27.70;14.65;;;0.50;99.90;;;;;;5050932;28;20416;-62
2024/01/20 09:42:23;;;;;;;26.05;14.57;;;0.50;99.90;;;;;;5050701;28;20523;-62
2024/01/20 09:44:51;;;;;;;25.02;13.57;;;0.50;99.90;;;;;;5049751;28;20106;-62
2024/01/20 09:47:17;;;;;;;26.33;14.35;;;0.60;99.90;;;;;;5049173;28;20048;-61
2024/01/20 09:49:44;;;;;;;26.73;13.63;;;0.50;99.90;;;;;;5051401;28;20477;-61
2024/01/20 09:52:15;;;;;;;26.00;14.52;;;0.50;99.90;;;;;;5049478;28;20059;-61
2024/01/20 09:55:11;;;;;;;27.20;15.25;;;0.40;99.90;;;;;;5049776;28;20059;-62
2024/01/20 09:57:40;;;;;;;22.80;12.25;;;0.60;99.90;;;;;;5048698;28;20063;-62
2024/01/20 10:00:10;;;;;;;27.30;14.40;;;0.70;99.90;;;;;;5049603;28;20103;-63
2024/01/20 10:02:37;;;;;;;25.08;14.85;;;0.70;99.90;;;;;;5049390;28;20052;-62
2024/01/20 10:05:07;;;;;;;26.17;14.48;;;0.70;99.90;;;;;;5050477;28;20473;-62
2024/01/20 10:07:33;;;;;;;26.92;15.40;;;0.80;99.90;;;;;;5050061;28;20048;-63
2024/01/20 10:09:59;;;;;;;;;;;0.60;99.90;;;;;;5050371;28;20069;-61
2024/01/20 10:12:25;;;;;;;24.83;14.20;;;0.70;99.90;;;;;;5049430;28;19978;-63
2024/01/20 10:14:52;;;;;;;;;;;0.70;99.90;;;;;;5051232;28;20347;-62
2024/01/20 10:17:19;;;;;;;27.60;13.98;;;0.70;99.90;;;;;;5049266;28;19924;-62
2024/01/20 10:19:46;;;;;;;25.65;14.38;;;0.80;99.90;;;;;;5050830;28;20056;-62
2024/01/20 10:22:13;;;;;;;25.75;14.27;;;0.80;99.90;;;;;;5050869;28;20045;-63
2024/01/20 10:24:50;;;;;;;25.15;14.35;;;0.90;99.90;;;;;;5049673;28;20053;-63
2024/01/20 10:27:18;;;;;;;25.73;14.48;;;1.00;99.90;;;;;;5050562;28;20163;-62
2024/01/20 10:29:48;;;;;;;25.73;14.48;;;0.90;99.90;;;;;;5049350;28;20067;-62
2024/01/20 10:32:15;;;;;;;24.88;14.13;;;0.90;99.90;;;;;;5048634;28;20134;-62
2024/01/20 10:34:42;;;;;;;27.90;14.88;;;1.00;99.90;;;;;;5048720;28;20048;-62
2024/01/20 10:37:13;;;;;;;26.45;15.02;;;1.00;99.90;;;;;;5049374;28;20103;-62
2024/01/20 10:39:44;;;;;;;23.30;13.52;;;1.00;99.90;;;;;;5049746;28;20480;-62
2024/01/20 10:42:12;;;;;;;27.75;15.65;;;1.10;99.90;;;;;;5046344;28;20404;-62
2024/01/20 10:44:44;;;;;;;26.42;14.95;;;1.20;99.90;;;;;;5049424;28;20124;-62
2024/01/20 10:47:16;;;;;;;26.50;14.27;;;1.20;99.90;;;;;;5049151;28;20068;-62
2024/01/20 10:49:46;;;;;;;25.75;14.43;;;1.10;99.90;;;;;;5049104;28;20053;-62
2024/01/20 10:52:13;;;;;;;24.98;14.52;;;1.20;99.90;;;;;;5049437;28;20060;-63
2024/01/20 10:54:44;;;;;;;32.15;17.02;;;1.00;99.90;;;;;;5084495;28;20512;-64
2024/01/20 10:57:11;;;;;;;27.92;15.40;;;1.10;99.90;;;;;;5048750;28;20110;-63
2024/01/20 10:59:42;;;;;;;29.67;15.10;;;1.20;99.90;;;;;;5051898;28;20471;-63
2024/01/20 11:02:12;;;;;;;30.85;15.10;;;1.20;99.90;;;;;;5053484;28;20052;-63
2024/01/20 11:04:43;;;;;;;22.20;12.88;;;1.30;99.90;;;;;;5052149;28;20088;-63
2024/01/20 11:07:09;;;;;;;29.55;14.52;;;1.30;99.90;;;;;;5054373;28;20072;-63
2024/01/20 11:10:00;;;;;;;27.52;15.35;;;1.30;99.90;;;;;;5086397;27;20408;-62
2024/01/20 11:12:27;;;;;;;;;;;1.20;99.90;;;;;;5087603;28;20412;-62
2024/01/20 11:14:55;;;;;;;24.77;13.63;;;1.30;99.90;;;;;;5085432;28;19924;-62
2024/01/20 11:17:26;;;;;;;27.05;15.35;;;1.30;99.90;;;;;;5081301;28;20071;-63
2024/01/20 11:19:52;;;;;;;30.05;16.35;;;1.40;99.90;;;;;;5091856;28;20059;-61
2024/01/20 11:22:30;;;;;;;28.13;15.80;;;1.20;99.90;;;;;;5086474;28;20415;-61
2024/01/20 11:24:56;;;;;;;26.67;16.50;;;1.40;99.90;;;;;;5085955;28;20052;-63
2024/01/20 11:27:23;;;;;;;26.98;14.93;;;1.40;99.90;;;;;;5083415;28;20074;-63
2024/01/20 11:29:49;;;;;;;28.00;15.32;;;1.30;99.90;;;;;;5085867;28;20431;-62
2024/01/20 11:32:16;;;;;;;28.65;14.88;;;1.40;99.90;;;;;;5086550;28;20460;-64
2024/01/20 11:34:43;;;;;;;26.88;14.25;;;1.30;99.90;;;;;;5085855;28;20109;-61
2024/01/20 11:37:10;;;;;;;26.40;14.25;;;1.50;99.90;;;;;;5077796;28;20052;-62
2024/01/20 11:39:37;;;;;;;28.60;15.55;;;1.50;99.90;;;;;;5066857;28;20053;-63
2024/01/20 11:42:03;;;;;;;;;;;1.50;99.90;;;;;;5065640;28;20147;-62
2024/01/20 11:44:31;;;;;;;29.17;15.57;;;1.60;99.90;;;;;;5066472;28;19994;-62
2024/01/20 11:46:59;;;;;;;25.75;14.95;;;1.50;99.90;;;;;;5070159;28;20456;-62
2024/01/20 11:49:26;;;;;;;26.02;14.10;;;1.50;99.90;;;;;;5077335;28;20059;-64
2024/01/20 11:51:53;;;;;;;30.35;15.07;;;1.70;99.90;;;;;;5085254;28;20041;-63
2024/01/20 11:54:20;;;;;;;24.67;14.32;;;1.60;99.90;;;;;;5086817;28;20124;-64
2024/01/20 11:56:55;;;;;;;;;;;1.60;99.90;;;;;;5079917;28;20198;-63
2024/01/20 11:59:21;;;;;;;27.15;15.50;;;1.60;99.90;;;;;;5066690;28;20255;-63
2024/01/20 12:01:48;;;;;;;;;;;1.80;99.90;;;;;;5082838;28;20049;-62
2024/01/20 12:04:15;;;;;;;27.80;14.68;;;1.80;99.90;;;;;;5084788;28;19931;-65
2024/01/20 12:06:41;;;;;;;26.67;14.48;;;1.70;99.90;;;;;;5081915;28;20114;-62
2024/01/20 12:09:11;;;;;;;;;;;1.80;99.90;;;;;;5085458;28;20048;-62
2024/01/20 12:11:37;;;;;;;23.30;13.75;;;1.70;99.90;;;;;;5085413;28;19928;-63
2024/01/20 12:14:03;;;;;;;;;;;1.70;99.90;;;;;;5085763;28;20052;-63
2024/01/20 12:16:29;;;;;;;25.92;14.02;;;1.90;99.90;;;;;;5083444;28;19933;-62
2024/01/20 12:18:57;;;;;;;25.33;14.13;;;1.90;99.90;;;;;;5066112;28;20086;-63
2024/01/20 12:21:23;;;;;;;24.55;13.40;;;1.90;99.90;;;;;;5052346;28;20087;-62
2024/01/20 12:23:51;;;;;;;23.27;13.63;;;1.80;99.90;;;;;;5052852;28;20067;-62
2024/01/20 12:26:18;;;;;;;24.70;13.68;;;1.90;99.90;;;;;;5052681;28;20064;-63
2024/01/20 12:28:46;;;;;;;25.63;13.30;;;2.00;99.90;;;;;;5072543;28;20055;-63
2024/01/20 12:31:15;;;;;;;25.15;13.82;;;1.90;99.90;;;;;;5071226;28;20059;-63
2024/01/20 12:33:41;;;;;;;23.85;13.88;;;1.90;99.90;;;;;;5072597;28;20060;-62
2024/01/20 12:36:07;;;;;;;25.08;13.27;;;2.10;99.90;;;;;;5071800;28;20130;-62
2024/01/20 12:38:35;;;;;;;26.27;13.32;;;2.10;99.90;;;;;;5070676;28;20052;-62
2024/01/20 12:41:01;;;;;;;24.58;16.25;;;2.10;99.90;;;;;;5071244;28;20059;-62
2024/01/20 12:43:30;;;;;;;23.33;14.27;;;2.20;99.90;;;;;;5072333;28;20431;-62
2024/01/20 12:45:57;;;;;;;23.33;13.57;;;2.20;99.90;;;;;;5071710;28;20416;-63